Terminal Aerodrome Forecast
Issued by NWS

Home | Current Version | Previous Version | Text Only | Print | Product List | Glossary On
Versions: 1 2 3 4 5 6 7 8 9 10 11 12 13 14 15 16
000
FTAK31 PAJN 202300
TAFAKT
TAF
PAKT 202323Z 2100/2124 15006KT 6SM -RA SCT002 BKN015 OVC030
      TEMPO 2100/2102 5SM RA BR
     FM210900 14012G25KT P6SM -RA BKN025 OVC035
     FM211100 14017G30KT 6SM -RA BR BKN020 OVC030 WS020/14040KT
     FM211400 15019G34KT 5SM -RA BR BKN020 OVC030 WS020/14045KT
     FM211800 15011KT 6SM -RA BR BKN020 OVC030
     FM212100 15005KT P6SM -SHRA SCT020 OVC030
      AMD LTD TO CLD VIS AND WIND 2106/2115=

USA.gov is the U.S. government's official web portal to all federal, state and local government web resources and services.